sensor_id;sensor_type;location;lat;lon;timestamp;temperature;humidity
72762;SHT30;60886;55.034;73.150;2023-05-07T00:00:14;10.82;47.10
72762;SHT30;60886;55.034;73.150;2023-05-07T00:03:19;10.84;46.33
72762;SHT30;60886;55.034;73.150;2023-05-07T00:06:21;10.85;46.70
72762;SHT30;60886;55.034;73.150;2023-05-07T00:09:22;10.94;48.64
72762;SHT30;60886;55.034;73.150;2023-05-07T00:12:24;10.94;48.37
72762;SHT30;60886;55.034;73.150;2023-05-07T00:15:26;10.97;48.60
72762;SHT30;60886;55.034;73.150;2023-05-07T00:18:28;11.05;48.93
72762;SHT30;60886;55.034;73.150;2023-05-07T00:21:29;11.05;48.69
72762;SHT30;60886;55.034;73.150;2023-05-07T00:24:31;11.12;46.82
72762;SHT30;60886;55.034;73.150;2023-05-07T00:27:32;11.30;44.87
72762;SHT30;60886;55.034;73.150;2023-05-07T00:30:35;11.36;45.80
72762;SHT30;60886;55.034;73.150;2023-05-07T00:33:38;11.46;45.45
72762;SHT30;60886;55.034;73.150;2023-05-07T00:36:39;11.53;46.18
72762;SHT30;60886;55.034;73.150;2023-05-07T00:39:40;11.63;45.52
72762;SHT30;60886;55.034;73.150;2023-05-07T00:42:42;11.70;44.49
72762;SHT30;60886;55.034;73.150;2023-05-07T00:45:48;11.80;42.73
72762;SHT30;60886;55.034;73.150;2023-05-07T00:48:50;11.91;40.49
72762;SHT30;60886;55.034;73.150;2023-05-07T00:51:53;12.01;39.78
72762;SHT30;60886;55.034;73.150;2023-05-07T00:54:54;12.14;38.49
72762;SHT30;60886;55.034;73.150;2023-05-07T00:57:56;12.21;38.65
72762;SHT30;60886;55.034;73.150;2023-05-07T01:00:57;12.33;38.85
72762;SHT30;60886;55.034;73.150;2023-05-07T01:03:59;12.42;38.38
72762;SHT30;60886;55.034;73.150;2023-05-07T01:07:01;12.55;37.13
72762;SHT30;60886;55.034;73.150;2023-05-07T01:10:04;12.66;38.20
72762;SHT30;60886;55.034;73.150;2023-05-07T01:13:06;12.81;37.97
72762;SHT30;60886;55.034;73.150;2023-05-07T01:16:08;12.95;38.57
72762;SHT30;60886;55.034;73.150;2023-05-07T01:19:11;13.26;41.48
72762;SHT30;60886;55.034;73.150;2023-05-07T01:22:40;13.70;41.43
72762;SHT30;60886;55.034;73.150;2023-05-07T01:25:43;14.01;40.44
72762;SHT30;60886;55.034;73.150;2023-05-07T01:28:51;14.25;40.55
72762;SHT30;60886;55.034;73.150;2023-05-07T01:31:53;14.39;41.03
72762;SHT30;60886;55.034;73.150;2023-05-07T01:34:56;14.61;41.04
72762;SHT30;60886;55.034;73.150;2023-05-07T01:37:58;14.75;39.10
72762;SHT30;60886;55.034;73.150;2023-05-07T01:41:00;14.97;37.70
72762;SHT30;60886;55.034;73.150;2023-05-07T01:44:03;15.24;37.91
72762;SHT30;60886;55.034;73.150;2023-05-07T01:47:06;15.54;37.81
72762;SHT30;60886;55.034;73.150;2023-05-07T01:50:09;15.80;38.33
72762;SHT30;60886;55.034;73.150;2023-05-07T01:53:11;15.98;35.71
72762;SHT30;60886;55.034;73.150;2023-05-07T01:56:12;16.23;35.37
72762;SHT30;60886;55.034;73.150;2023-05-07T01:59:16;16.56;36.34
72762;SHT30;60886;55.034;73.150;2023-05-07T02:02:17;16.88;37.20
72762;SHT30;60886;55.034;73.150;2023-05-07T02:05:19;17.24;34.72
72762;SHT30;60886;55.034;73.150;2023-05-07T02:08:26;17.54;34.50
72762;SHT30;60886;55.034;73.150;2023-05-07T02:11:28;17.86;32.00
72762;SHT30;60886;55.034;73.150;2023-05-07T02:14:30;18.21;32.69
72762;SHT30;60886;55.034;73.150;2023-05-07T02:17:31;18.44;30.34
72762;SHT30;60886;55.034;73.150;2023-05-07T02:20:35;18.77;33.33
72762;SHT30;60886;55.034;73.150;2023-05-07T02:23:37;18.94;32.03
72762;SHT30;60886;55.034;73.150;2023-05-07T02:26:40;19.27;31.62
72762;SHT30;60886;55.034;73.150;2023-05-07T02:29:41;19.57;31.12
72762;SHT30;60886;55.034;73.150;2023-05-07T02:32:43;19.96;30.89
72762;SHT30;60886;55.034;73.150;2023-05-07T02:35:44;20.23;30.20
72762;SHT30;60886;55.034;73.150;2023-05-07T02:38:57;20.40;29.67
72762;SHT30;60886;55.034;73.150;2023-05-07T02:41:59;20.65;30.58
72762;SHT30;60886;55.034;73.150;2023-05-07T02:45:00;20.85;30.09
72762;SHT30;60886;55.034;73.150;2023-05-07T02:48:05;21.14;29.01
72762;SHT30;60886;55.034;73.150;2023-05-07T02:51:07;21.41;28.73
72762;SHT30;60886;55.034;73.150;2023-05-07T02:54:10;21.66;30.99
72762;SHT30;60886;55.034;73.150;2023-05-07T02:57:12;21.99;29.42
72762;SHT30;60886;55.034;73.150;2023-05-07T03:00:15;22.21;27.02
72762;SHT30;60886;55.034;73.150;2023-05-07T03:03:24;22.45;28.32
72762;SHT30;60886;55.034;73.150;2023-05-07T03:06:26;22.79;28.25
72762;SHT30;60886;55.034;73.150;2023-05-07T03:09:27;22.96;26.05
72762;SHT30;60886;55.034;73.150;2023-05-07T03:12:28;23.15;25.59
72762;SHT30;60886;55.034;73.150;2023-05-07T03:15:30;23.39;26.51
72762;SHT30;60886;55.034;73.150;2023-05-07T03:18:31;23.67;25.24
72762;SHT30;60886;55.034;73.150;2023-05-07T03:21:33;23.86;24.11
72762;SHT30;60886;55.034;73.150;2023-05-07T03:24:35;24.07;24.87
72762;SHT30;60886;55.034;73.150;2023-05-07T03:27:37;24.24;23.46
72762;SHT30;60886;55.034;73.150;2023-05-07T03:30:39;24.45;23.78
72762;SHT30;60886;55.034;73.150;2023-05-07T03:33:54;24.64;24.50
72762;SHT30;60886;55.034;73.150;2023-05-07T03:36:56;24.91;23.76
72762;SHT30;60886;55.034;73.150;2023-05-07T03:39:59;25.05;23.46
72762;SHT30;60886;55.034;73.150;2023-05-07T03:43:01;25.26;22.79
72762;SHT30;60886;55.034;73.150;2023-05-07T03:46:05;25.45;22.67
72762;SHT30;60886;55.034;73.150;2023-05-07T03:49:06;25.60;22.38
72762;SHT30;60886;55.034;73.150;2023-05-07T03:52:08;25.81;22.83
72762;SHT30;60886;55.034;73.150;2023-05-07T03:55:10;25.94;22.39
72762;SHT30;60886;55.034;73.150;2023-05-07T03:58:13;26.11;22.59
72762;SHT30;60886;55.034;73.150;2023-05-07T04:01:15;26.20;21.75
72762;SHT30;60886;55.034;73.150;2023-05-07T04:04:16;26.31;20.63
72762;SHT30;60886;55.034;73.150;2023-05-07T04:07:18;26.42;22.13
72762;SHT30;60886;55.034;73.150;2023-05-07T04:10:25;26.65;20.71
72762;SHT30;60886;55.034;73.150;2023-05-07T04:13:30;26.82;21.55
72762;SHT30;60886;55.034;73.150;2023-05-07T04:16:34;26.91;20.25
72762;SHT30;60886;55.034;73.150;2023-05-07T04:19:37;26.96;19.66
72762;SHT30;60886;55.034;73.150;2023-05-07T04:22:38;27.09;20.24
72762;SHT30;60886;55.034;73.150;2023-05-07T04:25:41;27.10;19.16
72762;SHT30;60886;55.034;73.150;2023-05-07T04:28:54;26.98;18.96
72762;SHT30;60886;55.034;73.150;2023-05-07T04:31:56;27.12;19.46
72762;SHT30;60886;55.034;73.150;2023-05-07T04:34:58;27.06;18.57
72762;SHT30;60886;55.034;73.150;2023-05-07T04:38:00;27.24;18.84
72762;SHT30;60886;55.034;73.150;2023-05-07T04:41:05;27.29;19.05
72762;SHT30;60886;55.034;73.150;2023-05-07T04:44:10;27.34;18.22
72762;SHT30;60886;55.034;73.150;2023-05-07T04:47:12;27.43;18.99
72762;SHT30;60886;55.034;73.150;2023-05-07T04:50:14;27.68;18.42
72762;SHT30;60886;55.034;73.150;2023-05-07T04:53:17;27.80;18.93
72762;SHT30;60886;55.034;73.150;2023-05-07T04:56:19;27.60;17.79
72762;SHT30;60886;55.034;73.150;2023-05-07T04:59:22;27.68;17.23
72762;SHT30;60886;55.034;73.150;2023-05-07T05:02:24;27.53;17.82
72762;SHT30;60886;55.034;73.150;2023-05-07T05:05:26;27.71;15.88
72762;SHT30;60886;55.034;73.150;2023-05-07T05:08:30;27.91;19.01
72762;SHT30;60886;55.034;73.150;2023-05-07T05:11:32;27.96;18.08
72762;SHT30;60886;55.034;73.150;2023-05-07T05:14:34;27.76;17.93
72762;SHT30;60886;55.034;73.150;2023-05-07T05:17:36;27.84;16.84
72762;SHT30;60886;55.034;73.150;2023-05-07T05:20:39;27.91;17.90
72762;SHT30;60886;55.034;73.150;2023-05-07T05:23:41;28.11;16.79
72762;SHT30;60886;55.034;73.150;2023-05-07T05:26:53;28.17;17.84
72762;SHT30;60886;55.034;73.150;2023-05-07T05:29:56;28.29;17.02
72762;SHT30;60886;55.034;73.150;2023-05-07T05:32:58;27.98;18.04
72762;SHT30;60886;55.034;73.150;2023-05-07T05:36:01;27.91;16.90
72762;SHT30;60886;55.034;73.150;2023-05-07T05:39:03;27.71;16.30
72762;SHT30;60886;55.034;73.150;2023-05-07T05:42:04;27.64;16.11
72762;SHT30;60886;55.034;73.150;2023-05-07T05:45:09;27.78;18.23
72762;SHT30;60886;55.034;73.150;2023-05-07T05:48:11;27.96;17.78
72762;SHT30;60886;55.034;73.150;2023-05-07T05:51:13;27.96;17.45
72762;SHT30;60886;55.034;73.150;2023-05-07T05:54:14;27.90;17.55
72762;SHT30;60886;55.034;73.150;2023-05-07T05:57:17;27.94;17.39
72762;SHT30;60886;55.034;73.150;2023-05-07T06:00:20;27.98;17.91
72762;SHT30;60886;55.034;73.150;2023-05-07T06:03:31;28.00;16.84
72762;SHT30;60886;55.034;73.150;2023-05-07T06:06:41;27.67;17.13
72762;SHT30;60886;55.034;73.150;2023-05-07T06:09:43;27.56;16.96
72762;SHT30;60886;55.034;73.150;2023-05-07T06:12:46;27.37;16.88
72762;SHT30;60886;55.034;73.150;2023-05-07T06:15:49;27.32;16.59
72762;SHT30;60886;55.034;73.150;2023-05-07T06:18:50;27.39;18.12
72762;SHT30;60886;55.034;73.150;2023-05-07T06:21:52;27.40;16.84
72762;SHT30;60886;55.034;73.150;2023-05-07T06:24:54;27.32;16.99
72762;SHT30;60886;55.034;73.150;2023-05-07T06:27:57;27.22;16.48
72762;SHT30;60886;55.034;73.150;2023-05-07T06:31:15;27.07;16.52
72762;SHT30;60886;55.034;73.150;2023-05-07T06:34:20;27.13;16.47
72762;SHT30;60886;55.034;73.150;2023-05-07T06:37:23;27.09;17.63
72762;SHT30;60886;55.034;73.150;2023-05-07T06:40:31;27.23;18.13
72762;SHT30;60886;55.034;73.150;2023-05-07T06:43:35;27.27;17.72
72762;SHT30;60886;55.034;73.150;2023-05-07T06:47:05;27.20;16.29
72762;SHT30;60886;55.034;73.150;2023-05-07T06:50:08;27.16;17.39
72762;SHT30;60886;55.034;73.150;2023-05-07T06:53:11;27.17;17.76
72762;SHT30;60886;55.034;73.150;2023-05-07T06:56:13;27.12;17.00
72762;SHT30;60886;55.034;73.150;2023-05-07T06:59:16;27.16;17.24
72762;SHT30;60886;55.034;73.150;2023-05-07T07:02:18;27.14;17.34
72762;SHT30;60886;55.034;73.150;2023-05-07T07:05:30;27.02;16.82
72762;SHT30;60886;55.034;73.150;2023-05-07T07:08:33;27.07;17.96
72762;SHT30;60886;55.034;73.150;2023-05-07T07:11:35;27.06;16.21
72762;SHT30;60886;55.034;73.150;2023-05-07T07:14:37;27.06;18.67
72762;SHT30;60886;55.034;73.150;2023-05-07T07:17:40;27.09;16.92
72762;SHT30;60886;55.034;73.150;2023-05-07T07:20:42;27.23;16.60
72762;SHT30;60886;55.034;73.150;2023-05-07T07:23:45;27.27;17.61
72762;SHT30;60886;55.034;73.150;2023-05-07T07:26:52;27.24;16.40
72762;SHT30;60886;55.034;73.150;2023-05-07T07:29:57;27.32;17.51
72762;SHT30;60886;55.034;73.150;2023-05-07T07:32:58;27.17;16.76
72762;SHT30;60886;55.034;73.150;2023-05-07T07:36:06;27.17;17.48
72762;SHT30;60886;55.034;73.150;2023-05-07T07:39:08;27.16;17.61
72762;SHT30;60886;55.034;73.150;2023-05-07T07:42:11;27.20;17.19
72762;SHT30;60886;55.034;73.150;2023-05-07T07:45:13;27.12;16.74
72762;SHT30;60886;55.034;73.150;2023-05-07T07:48:19;26.91;16.87
72762;SHT30;60886;55.034;73.150;2023-05-07T07:51:21;26.96;17.99
72762;SHT30;60886;55.034;73.150;2023-05-07T07:54:22;27.03;17.14
72762;SHT30;60886;55.034;73.150;2023-05-07T07:57:24;26.96;16.54
72762;SHT30;60886;55.034;73.150;2023-05-07T08:00:26;26.83;16.08
72762;SHT30;60886;55.034;73.150;2023-05-07T08:03:31;26.98;17.35
72762;SHT30;60886;55.034;73.150;2023-05-07T08:06:34;26.93;17.42
72762;SHT30;60886;55.034;73.150;2023-05-07T08:09:39;26.99;17.15
72762;SHT30;60886;55.034;73.150;2023-05-07T08:12:47;26.95;17.88
72762;SHT30;60886;55.034;73.150;2023-05-07T08:16:02;26.86;17.74
72762;SHT30;60886;55.034;73.150;2023-05-07T08:19:11;26.93;17.21
72762;SHT30;60886;55.034;73.150;2023-05-07T08:22:25;26.99;17.41
72762;SHT30;60886;55.034;73.150;2023-05-07T08:25:30;27.07;16.95
72762;SHT30;60886;55.034;73.150;2023-05-07T08:28:31;27.13;18.07
72762;SHT30;60886;55.034;73.150;2023-05-07T08:31:33;27.19;17.59
72762;SHT30;60886;55.034;73.150;2023-05-07T08:34:35;27.17;17.12
72762;SHT30;60886;55.034;73.150;2023-05-07T08:37:39;27.16;16.85
72762;SHT30;60886;55.034;73.150;2023-05-07T08:40:41;27.05;16.31
72762;SHT30;60886;55.034;73.150;2023-05-07T08:43:49;27.03;16.28
72762;SHT30;60886;55.034;73.150;2023-05-07T08:46:54;27.12;16.98
72762;SHT30;60886;55.034;73.150;2023-05-07T08:49:58;27.17;18.06
72762;SHT30;60886;55.034;73.150;2023-05-07T08:53:00;27.19;16.73
72762;SHT30;60886;55.034;73.150;2023-05-07T08:56:02;27.16;17.19
72762;SHT30;60886;55.034;73.150;2023-05-07T08:59:05;27.16;17.17
72762;SHT30;60886;55.034;73.150;2023-05-07T09:02:08;27.13;16.60
72762;SHT30;60886;55.034;73.150;2023-05-07T09:05:11;27.10;18.04
72762;SHT30;60886;55.034;73.150;2023-05-07T09:08:15;27.09;17.22
72762;SHT30;60886;55.034;73.150;2023-05-07T09:11:22;27.07;17.83
72762;SHT30;60886;55.034;73.150;2023-05-07T09:14:24;27.10;17.14
72762;SHT30;60886;55.034;73.150;2023-05-07T09:17:26;27.12;16.90
72762;SHT30;60886;55.034;73.150;2023-05-07T09:20:32;27.10;17.56
72762;SHT30;60886;55.034;73.150;2023-05-07T09:23:34;27.05;16.70
72762;SHT30;60886;55.034;73.150;2023-05-07T09:26:36;26.99;17.04
72762;SHT30;60886;55.034;73.150;2023-05-07T09:29:39;27.03;17.04
72762;SHT30;60886;55.034;73.150;2023-05-07T09:32:41;27.09;16.88
72762;SHT30;60886;55.034;73.150;2023-05-07T09:35:53;27.12;16.79
72762;SHT30;60886;55.034;73.150;2023-05-07T09:38:59;27.07;17.22
72762;SHT30;60886;55.034;73.150;2023-05-07T09:42:02;27.05;17.22
72762;SHT30;60886;55.034;73.150;2023-05-07T09:45:08;27.13;17.32
72762;SHT30;60886;55.034;73.150;2023-05-07T09:48:13;27.14;16.67
72762;SHT30;60886;55.034;73.150;2023-05-07T09:51:30;27.13;17.40
72762;SHT30;60886;55.034;73.150;2023-05-07T09:54:35;27.16;16.72
72762;SHT30;60886;55.034;73.150;2023-05-07T09:57:41;27.09;16.35
72762;SHT30;60886;55.034;73.150;2023-05-07T10:00:44;27.05;17.03
72762;SHT30;60886;55.034;73.150;2023-05-07T10:03:50;27.10;16.49
72762;SHT30;60886;55.034;73.150;2023-05-07T10:06:53;27.10;16.61
72762;SHT30;60886;55.034;73.150;2023-05-07T10:10:00;27.00;17.20
72762;SHT30;60886;55.034;73.150;2023-05-07T10:13:10;27.02;16.50
72762;SHT30;60886;55.034;73.150;2023-05-07T10:16:15;26.96;16.89
72762;SHT30;60886;55.034;73.150;2023-05-07T10:19:22;26.99;17.07
72762;SHT30;60886;55.034;73.150;2023-05-07T10:22:28;27.13;17.19
72762;SHT30;60886;55.034;73.150;2023-05-07T10:25:33;27.14;17.30
72762;SHT30;60886;55.034;73.150;2023-05-07T10:28:44;27.09;17.52
72762;SHT30;60886;55.034;73.150;2023-05-07T10:35:01;26.91;17.21
72762;SHT30;60886;55.034;73.150;2023-05-07T10:38:05;26.89;17.52
72762;SHT30;60886;55.034;73.150;2023-05-07T10:41:11;26.88;17.83
72762;SHT30;60886;55.034;73.150;2023-05-07T10:44:28;26.88;17.96
72762;SHT30;60886;55.034;73.150;2023-05-07T10:47:33;27.05;17.45
72762;SHT30;60886;55.034;73.150;2023-05-07T10:50:37;27.03;17.22
72762;SHT30;60886;55.034;73.150;2023-05-07T10:53:40;26.93;19.01
72762;SHT30;60886;55.034;73.150;2023-05-07T10:56:52;26.95;17.88
72762;SHT30;60886;55.034;73.150;2023-05-07T10:59:58;26.85;18.17
72762;SHT30;60886;55.034;73.150;2023-05-07T11:03:09;26.81;18.73
72762;SHT30;60886;55.034;73.150;2023-05-07T11:06:25;26.78;18.82
72762;SHT30;60886;55.034;73.150;2023-05-07T11:13:07;26.75;18.26
72762;SHT30;60886;55.034;73.150;2023-05-07T11:16:19;26.83;18.54
72762;SHT30;60886;55.034;73.150;2023-05-07T11:19:58;26.79;19.55
72762;SHT30;60886;55.034;73.150;2023-05-07T11:26:59;26.85;19.51
72762;SHT30;60886;55.034;73.150;2023-05-07T11:30:04;26.79;19.90
72762;SHT30;60886;55.034;73.150;2023-05-07T11:33:07;26.76;20.28
72762;SHT30;60886;55.034;73.150;2023-05-07T11:36:10;26.76;20.55
72762;SHT30;60886;55.034;73.150;2023-05-07T11:39:30;26.76;20.38
72762;SHT30;60886;55.034;73.150;2023-05-07T11:42:36;26.79;20.42
72762;SHT30;60886;55.034;73.150;2023-05-07T11:45:38;26.85;20.27
72762;SHT30;60886;55.034;73.150;2023-05-07T11:48:40;26.86;20.13
72762;SHT30;60886;55.034;73.150;2023-05-07T11:51:42;26.82;21.19
72762;SHT30;60886;55.034;73.150;2023-05-07T11:54:51;26.78;20.26
72762;SHT30;60886;55.034;73.150;2023-05-07T11:57:54;26.85;20.42
72762;SHT30;60886;55.034;73.150;2023-05-07T12:00:55;26.91;20.65
72762;SHT30;60886;55.034;73.150;2023-05-07T12:03:57;26.79;21.36
72762;SHT30;60886;55.034;73.150;2023-05-07T12:06:58;26.81;20.63
72762;SHT30;60886;55.034;73.150;2023-05-07T12:10:04;26.75;20.61
72762;SHT30;60886;55.034;73.150;2023-05-07T12:13:17;26.73;20.88
72762;SHT30;60886;55.034;73.150;2023-05-07T12:16:26;26.69;21.10
72762;SHT30;60886;55.034;73.150;2023-05-07T12:19:30;26.69;20.49
72762;SHT30;60886;55.034;73.150;2023-05-07T12:22:31;26.69;20.98
72762;SHT30;60886;55.034;73.150;2023-05-07T12:25:37;26.68;20.55
72762;SHT30;60886;55.034;73.150;2023-05-07T12:28:39;26.71;20.73
72762;SHT30;60886;55.034;73.150;2023-05-07T12:31:41;26.69;20.50
72762;SHT30;60886;55.034;73.150;2023-05-07T12:34:43;26.56;20.79
72762;SHT30;60886;55.034;73.150;2023-05-07T12:37:54;26.51;20.98
72762;SHT30;60886;55.034;73.150;2023-05-07T12:40:56;26.53;20.75
72762;SHT30;60886;55.034;73.150;2023-05-07T12:43:57;26.51;20.76
72762;SHT30;60886;55.034;73.150;2023-05-07T12:47:02;26.44;20.96
72762;SHT30;60886;55.034;73.150;2023-05-07T12:50:07;26.34;21.12
72762;SHT30;60886;55.034;73.150;2023-05-07T12:53:10;26.28;21.53
72762;SHT30;60886;55.034;73.150;2023-05-07T12:56:15;26.27;21.27
72762;SHT30;60886;55.034;73.150;2023-05-07T12:59:17;26.25;21.37
72762;SHT30;60886;55.034;73.150;2023-05-07T13:02:18;26.27;20.93
72762;SHT30;60886;55.034;73.150;2023-05-07T13:05:20;26.20;21.47
72762;SHT30;60886;55.034;73.150;2023-05-07T13:08:29;26.17;21.54
72762;SHT30;60886;55.034;73.150;2023-05-07T13:11:31;26.22;21.03
72762;SHT30;60886;55.034;73.150;2023-05-07T13:14:32;26.28;21.13
72762;SHT30;60886;55.034;73.150;2023-05-07T13:17:34;26.21;21.34
72762;SHT30;60886;55.034;73.150;2023-05-07T13:20:36;26.14;20.99
72762;SHT30;60886;55.034;73.150;2023-05-07T13:23:37;26.14;20.56
72762;SHT30;60886;55.034;73.150;2023-05-07T13:26:39;26.16;20.74
72762;SHT30;60886;55.034;73.150;2023-05-07T13:29:41;26.08;21.03
72762;SHT30;60886;55.034;73.150;2023-05-07T13:32:42;26.00;21.27
72762;SHT30;60886;55.034;73.150;2023-05-07T13:35:44;25.88;21.78
72762;SHT30;60886;55.034;73.150;2023-05-07T13:38:46;25.77;21.67
72762;SHT30;60886;55.034;73.150;2023-05-07T13:41:52;25.69;21.74
72762;SHT30;60886;55.034;73.150;2023-05-07T13:44:54;25.70;21.59
72762;SHT30;60886;55.034;73.150;2023-05-07T13:47:56;25.56;21.76
72762;SHT30;60886;55.034;73.150;2023-05-07T13:50:58;25.49;21.74
72762;SHT30;60886;55.034;73.150;2023-05-07T13:53:59;25.37;22.15
72762;SHT30;60886;55.034;73.150;2023-05-07T13:57:00;25.37;22.03
72762;SHT30;60886;55.034;73.150;2023-05-07T14:00:03;25.30;21.95
72762;SHT30;60886;55.034;73.150;2023-05-07T14:03:16;25.27;22.07
72762;SHT30;60886;55.034;73.150;2023-05-07T14:06:18;25.19;21.83
72762;SHT30;60886;55.034;73.150;2023-05-07T14:09:20;25.18;22.22
72762;SHT30;60886;55.034;73.150;2023-05-07T14:12:21;25.04;22.47
72762;SHT30;60886;55.034;73.150;2023-05-07T14:15:23;24.91;22.16
72762;SHT30;60886;55.034;73.150;2023-05-07T14:18:24;24.75;22.54
72762;SHT30;60886;55.034;73.150;2023-05-07T14:21:26;24.67;22.83
72762;SHT30;60886;55.034;73.150;2023-05-07T14:24:29;24.54;22.45
72762;SHT30;60886;55.034;73.150;2023-05-07T14:27:30;24.44;22.65
72762;SHT30;60886;55.034;73.150;2023-05-07T14:30:32;24.30;23.20
72762;SHT30;60886;55.034;73.150;2023-05-07T14:33:33;24.18;23.58
72762;SHT30;60886;55.034;73.150;2023-05-07T14:36:35;24.03;23.15
72762;SHT30;60886;55.034;73.150;2023-05-07T14:39:50;23.84;23.17
72762;SHT30;60886;55.034;73.150;2023-05-07T14:42:51;23.65;23.36
72762;SHT30;60886;55.034;73.150;2023-05-07T14:45:53;23.46;23.64
72762;SHT30;60886;55.034;73.150;2023-05-07T14:48:54;23.28;23.78
72762;SHT30;60886;55.034;73.150;2023-05-07T14:51:59;23.12;23.97
72762;SHT30;60886;55.034;73.150;2023-05-07T14:55:05;22.92;24.46
72762;SHT30;60886;55.034;73.150;2023-05-07T14:58:07;22.79;24.37
72762;SHT30;60886;55.034;73.150;2023-05-07T15:01:09;22.68;24.44
72762;SHT30;60886;55.034;73.150;2023-05-07T15:04:12;22.57;24.87
72762;SHT30;60886;55.034;73.150;2023-05-07T15:07:14;22.43;24.58
72762;SHT30;60886;55.034;73.150;2023-05-07T15:10:18;22.34;24.65
72762;SHT30;60886;55.034;73.150;2023-05-07T15:13:20;22.23;24.77
72762;SHT30;60886;55.034;73.150;2023-05-07T15:16:22;22.17;24.96
72762;SHT30;60886;55.034;73.150;2023-05-07T15:19:23;22.09;24.86
72762;SHT30;60886;55.034;73.150;2023-05-07T15:22:30;22.00;24.87
72762;SHT30;60886;55.034;73.150;2023-05-07T15:25:31;22.00;25.26
72762;SHT30;60886;55.034;73.150;2023-05-07T15:28:34;21.99;25.08
72762;SHT30;60886;55.034;73.150;2023-05-07T15:31:36;21.90;25.26
72762;SHT30;60886;55.034;73.150;2023-05-07T15:34:39;21.79;25.14
72762;SHT30;60886;55.034;73.150;2023-05-07T15:37:40;21.72;25.23
72762;SHT30;60886;55.034;73.150;2023-05-07T15:40:42;21.66;25.35
72762;SHT30;60886;55.034;73.150;2023-05-07T15:43:46;21.60;25.56
72762;SHT30;60886;55.034;73.150;2023-05-07T15:46:53;21.56;25.52
72762;SHT30;60886;55.034;73.150;2023-05-07T15:49:54;21.46;25.58
72762;SHT30;60886;55.034;73.150;2023-05-07T15:52:56;21.38;25.82
72762;SHT30;60886;55.034;73.150;2023-05-07T15:55:58;21.34;25.84
72762;SHT30;60886;55.034;73.150;2023-05-07T15:58:59;21.31;25.80
72762;SHT30;60886;55.034;73.150;2023-05-07T16:02:02;21.28;25.59
72762;SHT30;60886;55.034;73.150;2023-05-07T16:05:05;21.22;25.51
72762;SHT30;60886;55.034;73.150;2023-05-07T16:08:09;21.17;25.63
72762;SHT30;60886;55.034;73.150;2023-05-07T16:11:11;21.17;25.68
72762;SHT30;60886;55.034;73.150;2023-05-07T16:14:12;21.09;25.75
72762;SHT30;60886;55.034;73.150;2023-05-07T16:17:14;21.04;25.71
72762;SHT30;60886;55.034;73.150;2023-05-07T16:20:16;20.97;25.75
72762;SHT30;60886;55.034;73.150;2023-05-07T16:23:20;20.90;25.84
72762;SHT30;60886;55.034;73.150;2023-05-07T16:26:21;20.83;25.93
72762;SHT30;60886;55.034;73.150;2023-05-07T16:29:23;20.77;26.16
72762;SHT30;60886;55.034;73.150;2023-05-07T16:32:24;20.70;26.13
72762;SHT30;60886;55.034;73.150;2023-05-07T16:35:28;20.64;26.22
72762;SHT30;60886;55.034;73.150;2023-05-07T16:38:29;20.57;26.85
72762;SHT30;60886;55.034;73.150;2023-05-07T16:41:35;20.55;26.35
72762;SHT30;60886;55.034;73.150;2023-05-07T16:44:37;20.51;26.54
72762;SHT30;60886;55.034;73.150;2023-05-07T16:47:47;20.44;26.61
72762;SHT30;60886;55.034;73.150;2023-05-07T16:50:48;20.36;26.91
72762;SHT30;60886;55.034;73.150;2023-05-07T16:53:50;20.32;26.86
72762;SHT30;60886;55.034;73.150;2023-05-07T16:56:52;20.26;26.79
72762;SHT30;60886;55.034;73.150;2023-05-07T16:59:57;20.16;27.13
72762;SHT30;60886;55.034;73.150;2023-05-07T17:03:01;20.13;26.71
72762;SHT30;60886;55.034;73.150;2023-05-07T17:06:02;20.08;27.28
72762;SHT30;60886;55.034;73.150;2023-05-07T17:09:04;19.99;26.80
72762;SHT30;60886;55.034;73.150;2023-05-07T17:12:06;19.99;27.16
72762;SHT30;60886;55.034;73.150;2023-05-07T17:15:08;19.89;27.31
72762;SHT30;60886;55.034;73.150;2023-05-07T17:18:10;19.86;27.47
72762;SHT30;60886;55.034;73.150;2023-05-07T17:21:11;19.82;27.62
72762;SHT30;60886;55.034;73.150;2023-05-07T17:24:13;19.79;27.53
72762;SHT30;60886;55.034;73.150;2023-05-07T17:27:14;19.76;27.59
72762;SHT30;60886;55.034;73.150;2023-05-07T17:30:15;19.72;27.59
72762;SHT30;60886;55.034;73.150;2023-05-07T17:33:17;19.72;27.93
72762;SHT30;60886;55.034;73.150;2023-05-07T17:36:18;19.66;27.88
72762;SHT30;60886;55.034;73.150;2023-05-07T17:39:20;19.62;28.56
72762;SHT30;60886;55.034;73.150;2023-05-07T17:42:21;19.57;28.31
72762;SHT30;60886;55.034;73.150;2023-05-07T17:45:23;19.55;28.31
72762;SHT30;60886;55.034;73.150;2023-05-07T17:48:24;19.52;28.34
72762;SHT30;60886;55.034;73.150;2023-05-07T17:51:26;19.51;28.38
72762;SHT30;60886;55.034;73.150;2023-05-07T17:54:29;19.54;28.69
72762;SHT30;60886;55.034;73.150;2023-05-07T17:57:33;19.49;28.96
72762;SHT30;60886;55.034;73.150;2023-05-07T18:00:38;19.48;28.72
72762;SHT30;60886;55.034;73.150;2023-05-07T18:03:41;19.41;28.55
72762;SHT30;60886;55.034;73.150;2023-05-07T18:06:42;19.34;29.21
72762;SHT30;60886;55.034;73.150;2023-05-07T18:09:44;19.29;29.10
72762;SHT30;60886;55.034;73.150;2023-05-07T18:12:46;19.29;29.34
72762;SHT30;60886;55.034;73.150;2023-05-07T18:15:47;19.21;29.21
72762;SHT30;60886;55.034;73.150;2023-05-07T18:18:49;19.17;29.42
72762;SHT30;60886;55.034;73.150;2023-05-07T18:21:52;19.12;29.49
72762;SHT30;60886;55.034;73.150;2023-05-07T18:24:55;19.06;29.45
72762;SHT30;60886;55.034;73.150;2023-05-07T18:27:57;19.00;29.55
72762;SHT30;60886;55.034;73.150;2023-05-07T18:30:58;18.94;29.61
72762;SHT30;60886;55.034;73.150;2023-05-07T18:33:59;18.94;29.73
72762;SHT30;60886;55.034;73.150;2023-05-07T18:37:02;18.88;30.05
72762;SHT30;60886;55.034;73.150;2023-05-07T18:40:03;18.83;29.90
72762;SHT30;60886;55.034;73.150;2023-05-07T18:43:10;18.83;30.29
72762;SHT30;60886;55.034;73.150;2023-05-07T18:46:11;18.78;30.09
72762;SHT30;60886;55.034;73.150;2023-05-07T18:49:13;18.74;30.58
72762;SHT30;60886;55.034;73.150;2023-05-07T18:52:14;18.67;30.38
72762;SHT30;60886;55.034;73.150;2023-05-07T18:55:21;18.64;30.48
72762;SHT30;60886;55.034;73.150;2023-05-07T18:58:22;18.57;30.73
72762;SHT30;60886;55.034;73.150;2023-05-07T19:01:32;18.53;30.84
72762;SHT30;60886;55.034;73.150;2023-05-07T19:04:33;18.49;31.00
72762;SHT30;60886;55.034;73.150;2023-05-07T19:07:36;18.43;31.44
72762;SHT30;60886;55.034;73.150;2023-05-07T19:10:37;18.32;31.33